sensor_id;sensor_type;location;lat;lon;timestamp;P1;durP1;ratioP1;P2;durP2;ratioP2
24411;SDS011;12544;46.760;15.942;2023-05-10T00:00:52;7.72;;;6.15;;
24411;SDS011;12544;46.760;15.942;2023-05-10T00:03:18;21.13;;;7.95;;
24411;SDS011;12544;46.760;15.942;2023-05-10T00:05:43;8.80;;;6.30;;
24411;SDS011;12544;46.760;15.942;2023-05-10T00:08:09;9.80;;;7.00;;
24411;SDS011;12544;46.760;15.942;2023-05-10T00:10:35;8.02;;;7.22;;
24411;SDS011;12544;46.760;15.942;2023-05-10T00:13:02;9.57;;;7.20;;
24411;SDS011;12544;46.760;15.942;2023-05-10T00:15:28;7.60;;;6.80;;
24411;SDS011;12544;46.760;15.942;2023-05-10T00:17:56;6.82;;;6.05;;
24411;SDS011;12544;46.760;15.942;2023-05-10T00:20:22;8.30;;;6.25;;
24411;SDS011;12544;46.760;15.942;2023-05-10T00:22:47;8.65;;;6.18;;
24411;SDS011;12544;46.760;15.942;2023-05-10T00:25:13;9.10;;;6.38;;
24411;SDS011;12544;46.760;15.942;2023-05-10T00:27:39;9.18;;;6.85;;
24411;SDS011;12544;46.760;15.942;2023-05-10T00:30:10;7.45;;;6.72;;
24411;SDS011;12544;46.760;15.942;2023-05-10T00:32:36;9.85;;;7.35;;
24411;SDS011;12544;46.760;15.942;2023-05-10T00:35:02;9.65;;;8.30;;
24411;SDS011;12544;46.760;15.942;2023-05-10T00:37:27;8.85;;;7.78;;
24411;SDS011;12544;46.760;15.942;2023-05-10T00:39:53;8.75;;;7.30;;
24411;SDS011;12544;46.760;15.942;2023-05-10T00:42:26;8.75;;;7.57;;
24411;SDS011;12544;46.760;15.942;2023-05-10T00:47:17;8.50;;;7.68;;
24411;SDS011;12544;46.760;15.942;2023-05-10T00:49:43;8.85;;;7.95;;
24411;SDS011;12544;46.760;15.942;2023-05-10T00:52:09;7.82;;;6.57;;
24411;SDS011;12544;46.760;15.942;2023-05-10T00:54:35;8.93;;;7.95;;
24411;SDS011;12544;46.760;15.942;2023-05-10T00:57:01;9.45;;;7.63;;
24411;SDS011;12544;46.760;15.942;2023-05-10T00:59:26;14.15;;;8.40;;
24411;SDS011;12544;46.760;15.942;2023-05-10T01:01:59;11.85;;;7.53;;
24411;SDS011;12544;46.760;15.942;2023-05-10T01:04:25;9.52;;;7.55;;
24411;SDS011;12544;46.760;15.942;2023-05-10T01:06:51;10.82;;;7.95;;
24411;SDS011;12544;46.760;15.942;2023-05-10T01:09:17;10.40;;;8.35;;
24411;SDS011;12544;46.760;15.942;2023-05-10T01:11:43;11.90;;;10.10;;
24411;SDS011;12544;46.760;15.942;2023-05-10T01:14:10;13.35;;;10.23;;
24411;SDS011;12544;46.760;15.942;2023-05-10T01:16:37;15.38;;;11.80;;
24411;SDS011;12544;46.760;15.942;2023-05-10T01:19:04;13.68;;;11.20;;
24411;SDS011;12544;46.760;15.942;2023-05-10T01:21:51;14.82;;;9.73;;
24411;SDS011;12544;46.760;15.942;2023-05-10T01:33:21;12.32;;;10.93;;
24411;SDS011;12544;46.760;15.942;2023-05-10T01:43:55;16.85;;;12.43;;
24411;SDS011;12544;46.760;15.942;2023-05-10T01:46:35;16.35;;;12.07;;
24411;SDS011;12544;46.760;15.942;2023-05-10T01:49:02;17.73;;;12.68;;
24411;SDS011;12544;46.760;15.942;2023-05-10T01:51:39;17.65;;;13.68;;
24411;SDS011;12544;46.760;15.942;2023-05-10T01:54:12;17.52;;;12.68;;
24411;SDS011;12544;46.760;15.942;2023-05-10T01:56:48;20.73;;;14.45;;
24411;SDS011;12544;46.760;15.942;2023-05-10T01:59:19;19.27;;;12.95;;
24411;SDS011;12544;46.760;15.942;2023-05-10T02:01:47;18.38;;;13.82;;
24411;SDS011;12544;46.760;15.942;2023-05-10T02:04:14;16.23;;;12.70;;
24411;SDS011;12544;46.760;15.942;2023-05-10T02:06:42;14.90;;;11.65;;
24411;SDS011;12544;46.760;15.942;2023-05-10T02:09:10;18.48;;;13.75;;
24411;SDS011;12544;46.760;15.942;2023-05-10T02:11:37;15.88;;;13.75;;
24411;SDS011;12544;46.760;15.942;2023-05-10T02:14:05;16.35;;;12.90;;
24411;SDS011;12544;46.760;15.942;2023-05-10T02:16:34;15.93;;;13.35;;
24411;SDS011;12544;46.760;15.942;2023-05-10T02:19:02;19.80;;;14.15;;
24411;SDS011;12544;46.760;15.942;2023-05-10T02:21:29;16.98;;;12.57;;
24411;SDS011;12544;46.760;15.942;2023-05-10T02:23:56;15.75;;;12.23;;
24411;SDS011;12544;46.760;15.942;2023-05-10T02:26:23;20.15;;;12.18;;
24411;SDS011;12544;46.760;15.942;2023-05-10T02:28:50;14.88;;;12.63;;
24411;SDS011;12544;46.760;15.942;2023-05-10T02:31:17;17.58;;;12.90;;
24411;SDS011;12544;46.760;15.942;2023-05-10T02:33:44;15.00;;;12.23;;
24411;SDS011;12544;46.760;15.942;2023-05-10T02:36:12;13.07;;;11.68;;
24411;SDS011;12544;46.760;15.942;2023-05-10T02:38:38;16.25;;;12.68;;
24411;SDS011;12544;46.760;15.942;2023-05-10T02:41:05;16.88;;;11.68;;
24411;SDS011;12544;46.760;15.942;2023-05-10T02:43:33;13.48;;;11.80;;
24411;SDS011;12544;46.760;15.942;2023-05-10T02:46:00;13.35;;;11.30;;
24411;SDS011;12544;46.760;15.942;2023-05-10T02:48:26;14.07;;;11.45;;
24411;SDS011;12544;46.760;15.942;2023-05-10T02:50:52;17.35;;;11.50;;
24411;SDS011;12544;46.760;15.942;2023-05-10T02:53:22;13.45;;;11.02;;
24411;SDS011;12544;46.760;15.942;2023-05-10T02:55:53;15.18;;;13.63;;
24411;SDS011;12544;46.760;15.942;2023-05-10T02:58:22;15.20;;;12.45;;
24411;SDS011;12544;46.760;15.942;2023-05-10T03:00:47;13.48;;;11.18;;
24411;SDS011;12544;46.760;15.942;2023-05-10T03:03:13;19.27;;;12.48;;
24411;SDS011;12544;46.760;15.942;2023-05-10T03:05:39;16.42;;;13.52;;
24411;SDS011;12544;46.760;15.942;2023-05-10T03:08:04;21.50;;;13.68;;
24411;SDS011;12544;46.760;15.942;2023-05-10T03:10:31;15.77;;;12.18;;
24411;SDS011;12544;46.760;15.942;2023-05-10T03:13:05;13.13;;;11.77;;
24411;SDS011;12544;46.760;15.942;2023-05-10T03:21:07;17.27;;;13.88;;
24411;SDS011;12544;46.760;15.942;2023-05-10T03:23:43;18.63;;;15.68;;
24411;SDS011;12544;46.760;15.942;2023-05-10T03:26:26;21.10;;;15.77;;
24411;SDS011;12544;46.760;15.942;2023-05-10T03:28:53;23.15;;;15.68;;
24411;SDS011;12544;46.760;15.942;2023-05-10T03:31:24;17.55;;;14.05;;
24411;SDS011;12544;46.760;15.942;2023-05-10T03:33:51;18.38;;;12.50;;
24411;SDS011;12544;46.760;15.942;2023-05-10T03:36:17;17.15;;;12.85;;
24411;SDS011;12544;46.760;15.942;2023-05-10T03:38:43;14.02;;;11.13;;
24411;SDS011;12544;46.760;15.942;2023-05-10T03:41:09;13.52;;;11.35;;
24411;SDS011;12544;46.760;15.942;2023-05-10T03:43:35;17.75;;;14.38;;
24411;SDS011;12544;46.760;15.942;2023-05-10T03:46:02;21.25;;;15.25;;
24411;SDS011;12544;46.760;15.942;2023-05-10T03:48:28;17.63;;;15.35;;
24411;SDS011;12544;46.760;15.942;2023-05-10T03:50:54;17.42;;;13.90;;
24411;SDS011;12544;46.760;15.942;2023-05-10T03:53:19;19.60;;;13.68;;
24411;SDS011;12544;46.760;15.942;2023-05-10T03:55:45;13.00;;;11.70;;
24411;SDS011;12544;46.760;15.942;2023-05-10T03:58:11;13.38;;;12.05;;
24411;SDS011;12544;46.760;15.942;2023-05-10T04:00:38;14.88;;;12.55;;
24411;SDS011;12544;46.760;15.942;2023-05-10T04:03:08;20.67;;;13.80;;
24411;SDS011;12544;46.760;15.942;2023-05-10T04:05:34;18.90;;;14.93;;
24411;SDS011;12544;46.760;15.942;2023-05-10T04:08:00;17.50;;;15.15;;
24411;SDS011;12544;46.760;15.942;2023-05-10T04:10:26;23.50;;;16.73;;
24411;SDS011;12544;46.760;15.942;2023-05-10T04:12:53;19.98;;;17.05;;
24411;SDS011;12544;46.760;15.942;2023-05-10T04:15:18;19.70;;;14.52;;
24411;SDS011;12544;46.760;15.942;2023-05-10T04:17:44;15.95;;;13.25;;
24411;SDS011;12544;46.760;15.942;2023-05-10T04:20:10;20.02;;;13.05;;
24411;SDS011;12544;46.760;15.942;2023-05-10T04:22:36;15.65;;;13.30;;
24411;SDS011;12544;46.760;15.942;2023-05-10T04:25:02;14.70;;;13.20;;
24411;SDS011;12544;46.760;15.942;2023-05-10T04:27:28;17.10;;;13.20;;
24411;SDS011;12544;46.760;15.942;2023-05-10T04:30:01;16.48;;;13.68;;
24411;SDS011;12544;46.760;15.942;2023-05-10T04:32:27;15.05;;;12.52;;
24411;SDS011;12544;46.760;15.942;2023-05-10T04:34:53;14.43;;;11.82;;
24411;SDS011;12544;46.760;15.942;2023-05-10T04:37:18;16.95;;;11.20;;
24411;SDS011;12544;46.760;15.942;2023-05-10T04:39:46;11.90;;;10.32;;
24411;SDS011;12544;46.760;15.942;2023-05-10T04:42:11;12.32;;;10.80;;
24411;SDS011;12544;46.760;15.942;2023-05-10T04:47:09;14.70;;;11.65;;
24411;SDS011;12544;46.760;15.942;2023-05-10T04:49:35;11.88;;;10.65;;
24411;SDS011;12544;46.760;15.942;2023-05-10T04:52:00;13.70;;;10.77;;
24411;SDS011;12544;46.760;15.942;2023-05-10T04:54:26;13.52;;;10.93;;
24411;SDS011;12544;46.760;15.942;2023-05-10T04:56:51;11.82;;;10.27;;
24411;SDS011;12544;46.760;15.942;2023-05-10T04:59:17;11.73;;;10.07;;
24411;SDS011;12544;46.760;15.942;2023-05-10T05:01:42;9.93;;;8.85;;
24411;SDS011;12544;46.760;15.942;2023-05-10T05:06:37;12.80;;;9.70;;
24411;SDS011;12544;46.760;15.942;2023-05-10T05:09:02;11.13;;;8.82;;
24411;SDS011;12544;46.760;15.942;2023-05-10T05:11:28;10.65;;;9.32;;
24411;SDS011;12544;46.760;15.942;2023-05-10T05:13:53;12.50;;;9.00;;
24411;SDS011;12544;46.760;15.942;2023-05-10T05:16:19;11.68;;;9.70;;
24411;SDS011;12544;46.760;15.942;2023-05-10T05:18:45;13.35;;;10.32;;
24411;SDS011;12544;46.760;15.942;2023-05-10T05:21:17;11.80;;;10.55;;
24411;SDS011;12544;46.760;15.942;2023-05-10T05:23:44;11.73;;;10.38;;
24411;SDS011;12544;46.760;15.942;2023-05-10T05:26:09;15.98;;;11.05;;
24411;SDS011;12544;46.760;15.942;2023-05-10T05:28:35;12.93;;;11.23;;
24411;SDS011;12544;46.760;15.942;2023-05-10T05:31:10;14.82;;;12.20;;
24411;SDS011;12544;46.760;15.942;2023-05-10T05:33:36;10.95;;;9.45;;
24411;SDS011;12544;46.760;15.942;2023-05-10T05:36:03;11.75;;;9.93;;
24411;SDS011;12544;46.760;15.942;2023-05-10T05:38:29;11.25;;;9.80;;
24411;SDS011;12544;46.760;15.942;2023-05-10T05:40:55;13.60;;;10.73;;
24411;SDS011;12544;46.760;15.942;2023-05-10T05:43:21;18.00;;;12.00;;
24411;SDS011;12544;46.760;15.942;2023-05-10T05:45:46;17.73;;;11.88;;
24411;SDS011;12544;46.760;15.942;2023-05-10T05:48:12;14.88;;;12.18;;
24411;SDS011;12544;46.760;15.942;2023-05-10T05:50:37;12.95;;;9.95;;
24411;SDS011;12544;46.760;15.942;2023-05-10T05:53:03;12.35;;;10.57;;
24411;SDS011;12544;46.760;15.942;2023-05-10T05:55:29;11.77;;;9.90;;
24411;SDS011;12544;46.760;15.942;2023-05-10T05:57:56;11.98;;;10.10;;
24411;SDS011;12544;46.760;15.942;2023-05-10T06:00:22;12.77;;;9.82;;
24411;SDS011;12544;46.760;15.942;2023-05-10T06:02:49;14.15;;;9.60;;
24411;SDS011;12544;46.760;15.942;2023-05-10T06:05:14;12.50;;;9.80;;
24411;SDS011;12544;46.760;15.942;2023-05-10T06:07:40;11.63;;;10.18;;
24411;SDS011;12544;46.760;15.942;2023-05-10T06:10:07;10.00;;;9.00;;
24411;SDS011;12544;46.760;15.942;2023-05-10T06:12:33;11.13;;;9.38;;
24411;SDS011;12544;46.760;15.942;2023-05-10T06:15:05;10.10;;;9.00;;
24411;SDS011;12544;46.760;15.942;2023-05-10T06:17:31;12.10;;;9.57;;
24411;SDS011;12544;46.760;15.942;2023-05-10T06:19:57;9.93;;;8.40;;
24411;SDS011;12544;46.760;15.942;2023-05-10T06:22:22;11.25;;;8.45;;
24411;SDS011;12544;46.760;15.942;2023-05-10T06:24:48;10.40;;;8.63;;
24411;SDS011;12544;46.760;15.942;2023-05-10T06:27:14;10.65;;;8.75;;
24411;SDS011;12544;46.760;15.942;2023-05-10T06:29:42;9.40;;;8.48;;
24411;SDS011;12544;46.760;15.942;2023-05-10T06:32:08;10.25;;;7.97;;
24411;SDS011;12544;46.760;15.942;2023-05-10T06:34:33;16.60;;;8.70;;
24411;SDS011;12544;46.760;15.942;2023-05-10T06:36:59;9.18;;;8.23;;
24411;SDS011;12544;46.760;15.942;2023-05-10T06:39:24;12.63;;;8.27;;
24411;SDS011;12544;46.760;15.942;2023-05-10T06:41:50;12.10;;;8.82;;
24411;SDS011;12544;46.760;15.942;2023-05-10T06:44:17;9.50;;;8.13;;
24411;SDS011;12544;46.760;15.942;2023-05-10T06:46:42;9.43;;;8.25;;
24411;SDS011;12544;46.760;15.942;2023-05-10T06:49:08;11.70;;;8.52;;
24411;SDS011;12544;46.760;15.942;2023-05-10T06:51:33;10.32;;;8.60;;
24411;SDS011;12544;46.760;15.942;2023-05-10T06:53:59;10.57;;;9.50;;
24411;SDS011;12544;46.760;15.942;2023-05-10T06:56:25;10.98;;;9.45;;
24411;SDS011;12544;46.760;15.942;2023-05-10T06:58:51;11.73;;;9.25;;
24411;SDS011;12544;46.760;15.942;2023-05-10T07:01:16;10.80;;;9.25;;
24411;SDS011;12544;46.760;15.942;2023-05-10T07:03:53;9.63;;;8.45;;
24411;SDS011;12544;46.760;15.942;2023-05-10T07:06:19;10.05;;;9.02;;
24411;SDS011;12544;46.760;15.942;2023-05-10T07:08:45;11.82;;;8.82;;
24411;SDS011;12544;46.760;15.942;2023-05-10T07:11:10;9.68;;;8.63;;
24411;SDS011;12544;46.760;15.942;2023-05-10T07:13:36;10.40;;;8.65;;
24411;SDS011;12544;46.760;15.942;2023-05-10T07:16:03;10.82;;;8.93;;
24411;SDS011;12544;46.760;15.942;2023-05-10T07:18:31;10.43;;;9.43;;
24411;SDS011;12544;46.760;15.942;2023-05-10T07:20:57;10.82;;;9.35;;
24411;SDS011;12544;46.760;15.942;2023-05-10T07:23:22;10.73;;;9.15;;
24411;SDS011;12544;46.760;15.942;2023-05-10T07:25:48;10.07;;;8.25;;
24411;SDS011;12544;46.760;15.942;2023-05-10T07:28:17;10.43;;;9.38;;
24411;SDS011;12544;46.760;15.942;2023-05-10T07:30:42;13.15;;;8.57;;
24411;SDS011;12544;46.760;15.942;2023-05-10T07:33:09;10.55;;;9.55;;
24411;SDS011;12544;46.760;15.942;2023-05-10T07:35:36;10.60;;;8.77;;
24411;SDS011;12544;46.760;15.942;2023-05-10T07:38:02;12.38;;;10.55;;
24411;SDS011;12544;46.760;15.942;2023-05-10T07:40:28;10.88;;;9.32;;
24411;SDS011;12544;46.760;15.942;2023-05-10T07:42:54;12.02;;;9.38;;
24411;SDS011;12544;46.760;15.942;2023-05-10T07:45:19;11.30;;;9.82;;
24411;SDS011;12544;46.760;15.942;2023-05-10T07:47:45;11.38;;;10.13;;
24411;SDS011;12544;46.760;15.942;2023-05-10T07:50:11;11.13;;;10.02;;
24411;SDS011;12544;46.760;15.942;2023-05-10T07:52:36;9.95;;;8.68;;
24411;SDS011;12544;46.760;15.942;2023-05-10T07:55:02;12.15;;;10.38;;
24411;SDS011;12544;46.760;15.942;2023-05-10T07:57:28;12.75;;;10.82;;
24411;SDS011;12544;46.760;15.942;2023-05-10T07:59:53;10.27;;;9.13;;
24411;SDS011;12544;46.760;15.942;2023-05-10T08:02:19;12.23;;;10.45;;
24411;SDS011;12544;46.760;15.942;2023-05-10T08:04:44;15.27;;;9.55;;
24411;SDS011;12544;46.760;15.942;2023-05-10T08:07:10;12.82;;;10.95;;
24411;SDS011;12544;46.760;15.942;2023-05-10T08:09:36;11.43;;;10.32;;
24411;SDS011;12544;46.760;15.942;2023-05-10T08:12:01;10.60;;;9.55;;
24411;SDS011;12544;46.760;15.942;2023-05-10T08:14:28;10.35;;;8.77;;
24411;SDS011;12544;46.760;15.942;2023-05-10T08:16:54;11.05;;;9.77;;
24411;SDS011;12544;46.760;15.942;2023-05-10T08:19:20;10.20;;;8.88;;
24411;SDS011;12544;46.760;15.942;2023-05-10T08:21:46;10.63;;;9.05;;
24411;SDS011;12544;46.760;15.942;2023-05-10T08:24:12;11.55;;;9.45;;
24411;SDS011;12544;46.760;15.942;2023-05-10T08:26:38;10.38;;;8.52;;
24411;SDS011;12544;46.760;15.942;2023-05-10T08:29:04;9.75;;;8.80;;
24411;SDS011;12544;46.760;15.942;2023-05-10T08:31:29;9.65;;;8.85;;
24411;SDS011;12544;46.760;15.942;2023-05-10T08:34:00;9.27;;;8.38;;
24411;SDS011;12544;46.760;15.942;2023-05-10T08:36:26;9.05;;;8.13;;
24411;SDS011;12544;46.760;15.942;2023-05-10T08:38:53;8.18;;;7.43;;
24411;SDS011;12544;46.760;15.942;2023-05-10T08:41:19;9.80;;;8.80;;
24411;SDS011;12544;46.760;15.942;2023-05-10T08:43:46;7.28;;;6.57;;
24411;SDS011;12544;46.760;15.942;2023-05-10T08:46:16;10.18;;;9.18;;
24411;SDS011;12544;46.760;15.942;2023-05-10T08:48:46;8.75;;;7.85;;
24411;SDS011;12544;46.760;15.942;2023-05-10T08:51:15;8.98;;;8.10;;
24411;SDS011;12544;46.760;15.942;2023-05-10T08:53:43;9.73;;;8.82;;
24411;SDS011;12544;46.760;15.942;2023-05-10T08:56:10;8.02;;;7.22;;
24411;SDS011;12544;46.760;15.942;2023-05-10T08:58:37;8.95;;;8.05;;
24411;SDS011;12544;46.760;15.942;2023-05-10T09:01:03;8.10;;;7.22;;
24411;SDS011;12544;46.760;15.942;2023-05-10T09:03:30;7.20;;;6.60;;
24411;SDS011;12544;46.760;15.942;2023-05-10T09:05:56;8.13;;;7.32;;
24411;SDS011;12544;46.760;15.942;2023-05-10T09:08:25;8.13;;;6.55;;
24411;SDS011;12544;46.760;15.942;2023-05-10T09:10:51;8.13;;;7.13;;
24411;SDS011;12544;46.760;15.942;2023-05-10T09:13:17;7.32;;;6.65;;
24411;SDS011;12544;46.760;15.942;2023-05-10T09:15:44;8.88;;;7.03;;
24411;SDS011;12544;46.760;15.942;2023-05-10T09:18:11;7.55;;;6.85;;
24411;SDS011;12544;46.760;15.942;2023-05-10T09:20:37;8.18;;;7.28;;
24411;SDS011;12544;46.760;15.942;2023-05-10T09:23:02;7.63;;;7.00;;
24411;SDS011;12544;46.760;15.942;2023-05-10T09:25:28;7.38;;;6.43;;
24411;SDS011;12544;46.760;15.942;2023-05-10T09:27:53;7.38;;;6.72;;
24411;SDS011;12544;46.760;15.942;2023-05-10T09:30:27;6.22;;;5.65;;
24411;SDS011;12544;46.760;15.942;2023-05-10T09:32:54;8.95;;;7.55;;
24411;SDS011;12544;46.760;15.942;2023-05-10T09:35:23;7.35;;;6.20;;
24411;SDS011;12544;46.760;15.942;2023-05-10T09:37:51;8.07;;;7.38;;
24411;SDS011;12544;46.760;15.942;2023-05-10T09:40:19;7.47;;;6.78;;
24411;SDS011;12544;46.760;15.942;2023-05-10T09:45:28;5.70;;;5.20;;
24411;SDS011;12544;46.760;15.942;2023-05-10T09:47:55;6.25;;;5.65;;
24411;SDS011;12544;46.760;15.942;2023-05-10T09:50:22;5.65;;;4.78;;
24411;SDS011;12544;46.760;15.942;2023-05-10T09:55:14;6.25;;;4.53;;
24411;SDS011;12544;46.760;15.942;2023-05-10T09:57:41;4.13;;;3.83;;
24411;SDS011;12544;46.760;15.942;2023-05-10T10:00:07;4.93;;;4.43;;
24411;SDS011;12544;46.760;15.942;2023-05-10T10:02:35;5.25;;;4.80;;
24411;SDS011;12544;46.760;15.942;2023-05-10T10:05:01;5.38;;;4.88;;
24411;SDS011;12544;46.760;15.942;2023-05-10T10:07:30;5.47;;;4.90;;
24411;SDS011;12544;46.760;15.942;2023-05-10T10:09:56;4.53;;;3.78;;
24411;SDS011;12544;46.760;15.942;2023-05-10T10:12:24;4.78;;;3.70;;
24411;SDS011;12544;46.760;15.942;2023-05-10T10:14:50;4.85;;;3.97;;
24411;SDS011;12544;46.760;15.942;2023-05-10T10:17:17;4.10;;;3.70;;
24411;SDS011;12544;46.760;15.942;2023-05-10T10:19:43;4.55;;;4.05;;
24411;SDS011;12544;46.760;15.942;2023-05-10T10:22:10;4.68;;;4.07;;
24411;SDS011;12544;46.760;15.942;2023-05-10T10:24:45;4.80;;;4.30;;
24411;SDS011;12544;46.760;15.942;2023-05-10T10:32:50;6.03;;;3.17;;
24411;SDS011;12544;46.760;15.942;2023-05-10T10:35:26;9.82;;;3.88;;
24411;SDS011;12544;46.760;15.942;2023-05-10T10:37:54;7.30;;;4.45;;
24411;SDS011;12544;46.760;15.942;2023-05-10T10:42:48;4.43;;;3.65;;
24411;SDS011;12544;46.760;15.942;2023-05-10T10:45:15;3.88;;;3.30;;
24411;SDS011;12544;46.760;15.942;2023-05-10T10:47:41;3.85;;;3.38;;
24411;SDS011;12544;46.760;15.942;2023-05-10T10:50:08;4.25;;;3.67;;
24411;SDS011;12544;46.760;15.942;2023-05-10T10:52:37;4.03;;;3.63;;
24411;SDS011;12544;46.760;15.942;2023-05-10T10:55:05;3.42;;;3.13;;
24411;SDS011;12544;46.760;15.942;2023-05-10T11:02:46;4.80;;;3.00;;
24411;SDS011;12544;46.760;15.942;2023-05-10T11:07:54;4.50;;;2.67;;
24411;SDS011;12544;46.760;15.942;2023-05-10T11:10:21;3.30;;;2.95;;
24411;SDS011;12544;46.760;15.942;2023-05-10T11:13:00;3.80;;;3.08;;
24411;SDS011;12544;46.760;15.942;2023-05-10T11:18:00;3.20;;;2.50;;
24411;SDS011;12544;46.760;15.942;2023-05-10T11:20:42;3.20;;;2.90;;
24411;SDS011;12544;46.760;15.942;2023-05-10T11:23:11;3.45;;;2.50;;
24411;SDS011;12544;46.760;15.942;2023-05-10T11:25:43;5.97;;;2.58;;
24411;SDS011;12544;46.760;15.942;2023-05-10T11:28:11;5.15;;;2.83;;
24411;SDS011;12544;46.760;15.942;2023-05-10T11:30:42;2.60;;;2.40;;
24411;SDS011;12544;46.760;15.942;2023-05-10T11:33:09;2.88;;;2.55;;
24411;SDS011;12544;46.760;15.942;2023-05-10T11:35:40;3.63;;;2.55;;
24411;SDS011;12544;46.760;15.942;2023-05-10T11:38:06;3.30;;;2.33;;
24411;SDS011;12544;46.760;15.942;2023-05-10T11:40:36;4.13;;;2.38;;
24411;SDS011;12544;46.760;15.942;2023-05-10T11:43:03;3.67;;;2.38;;
24411;SDS011;12544;46.760;15.942;2023-05-10T11:45:31;3.78;;;3.38;;
24411;SDS011;12544;46.760;15.942;2023-05-10T11:47:58;3.63;;;2.63;;
24411;SDS011;12544;46.760;15.942;2023-05-10T11:50:24;4.35;;;3.03;;
24411;SDS011;12544;46.760;15.942;2023-05-10T11:52:54;5.20;;;2.92;;
24411;SDS011;12544;46.760;15.942;2023-05-10T11:55:23;1.98;;;1.42;;
24411;SDS011;12544;46.760;15.942;2023-05-10T11:57:53;1.30;;;1.20;;
24411;SDS011;12544;46.760;15.942;2023-05-10T12:00:19;1.77;;;1.67;;
24411;SDS011;12544;46.760;15.942;2023-05-10T12:02:45;2.65;;;2.25;;
24411;SDS011;12544;46.760;15.942;2023-05-10T12:05:11;9.13;;;1.70;;
24411;SDS011;12544;46.760;15.942;2023-05-10T12:07:37;2.38;;;2.17;;
24411;SDS011;12544;46.760;15.942;2023-05-10T12:10:10;2.70;;;1.60;;
24411;SDS011;12544;46.760;15.942;2023-05-10T12:12:40;2.03;;;1.85;;
24411;SDS011;12544;46.760;15.942;2023-05-10T12:15:10;2.40;;;1.90;;
24411;SDS011;12544;46.760;15.942;2023-05-10T12:17:39;4.22;;;2.20;;
24411;SDS011;12544;46.760;15.942;2023-05-10T12:20:15;1.83;;;1.73;;
24411;SDS011;12544;46.760;15.942;2023-05-10T12:25:18;1.95;;;1.75;;
24411;SDS011;12544;46.760;15.942;2023-05-10T12:27:48;2.20;;;2.00;;
24411;SDS011;12544;46.760;15.942;2023-05-10T12:30:20;3.10;;;2.00;;
24411;SDS011;12544;46.760;15.942;2023-05-10T12:32:49;2.35;;;2.10;;
24411;SDS011;12544;46.760;15.942;2023-05-10T12:35:15;3.05;;;2.50;;
24411;SDS011;12544;46.760;15.942;2023-05-10T12:37:42;2.38;;;2.17;;
24411;SDS011;12544;46.760;15.942;2023-05-10T12:40:09;3.70;;;2.40;;
24411;SDS011;12544;46.760;15.942;2023-05-10T12:42:37;4.43;;;2.95;;
24411;SDS011;12544;46.760;15.942;2023-05-10T12:45:03;2.72;;;2.53;;
24411;SDS011;12544;46.760;15.942;2023-05-10T12:47:30;2.08;;;1.90;;
24411;SDS011;12544;46.760;15.942;2023-05-10T12:49:57;2.30;;;2.10;;
24411;SDS011;12544;46.760;15.942;2023-05-10T12:52:23;2.50;;;2.30;;
24411;SDS011;12544;46.760;15.942;2023-05-10T12:54:51;2.75;;;2.55;;
24411;SDS011;12544;46.760;15.942;2023-05-10T12:57:17;3.60;;;2.53;;
24411;SDS011;12544;46.760;15.942;2023-05-10T12:59:43;2.88;;;2.67;;
24411;SDS011;12544;46.760;15.942;2023-05-10T13:02:09;2.60;;;2.28;;
24411;SDS011;12544;46.760;15.942;2023-05-10T13:04:35;4.70;;;2.25;;
24411;SDS011;12544;46.760;15.942;2023-05-10T13:07:04;2.40;;;2.20;;
24411;SDS011;12544;46.760;15.942;2023-05-10T13:09:30;2.88;;;2.33;;
24411;SDS011;12544;46.760;15.942;2023-05-10T13:11:56;2.75;;;2.40;;
24411;SDS011;12544;46.760;15.942;2023-05-10T13:14:22;2.95;;;2.40;;
24411;SDS011;12544;46.760;15.942;2023-05-10T13:16:47;3.47;;;2.70;;
24411;SDS011;12544;46.760;15.942;2023-05-10T13:19:13;3.92;;;2.00;;
24411;SDS011;12544;46.760;15.942;2023-05-10T13:21:39;2.63;;;2.42;;
24411;SDS011;12544;46.760;15.942;2023-05-10T13:24:09;3.40;;;2.60;;
24411;SDS011;12544;46.760;15.942;2023-05-10T13:26:35;3.95;;;2.70;;
24411;SDS011;12544;46.760;15.942;2023-05-10T13:29:02;3.08;;;2.30;;
24411;SDS011;12544;46.760;15.942;2023-05-10T13:31:30;2.75;;;2.55;;
24411;SDS011;12544;46.760;15.942;2023-05-10T13:33:56;3.90;;;2.35;;
24411;SDS011;12544;46.760;15.942;2023-05-10T13:36:21;2.65;;;2.13;;
24411;SDS011;12544;46.760;15.942;2023-05-10T13:38:47;2.92;;;2.60;;
24411;SDS011;12544;46.760;15.942;2023-05-10T13:41:13;2.38;;;2.17;;
24411;SDS011;12544;46.760;15.942;2023-05-10T13:43:39;4.25;;;2.40;;
24411;SDS011;12544;46.760;15.942;2023-05-10T13:46:04;2.63;;;2.42;;
24411;SDS011;12544;46.760;15.942;2023-05-10T13:48:30;2.75;;;2.55;;
24411;SDS011;12544;46.760;15.942;2023-05-10T13:50:56;2.63;;;2.35;;
24411;SDS011;12544;46.760;15.942;2023-05-10T13:53:21;2.50;;;2.20;;
24411;SDS011;12544;46.760;15.942;2023-05-10T13:55:47;2.95;;;2.10;;
24411;SDS011;12544;46.760;15.942;2023-05-10T13:58:13;3.05;;;2.10;;
24411;SDS011;12544;46.760;15.942;2023-05-10T14:00:39;2.45;;;2.25;;
24411;SDS011;12544;46.760;15.942;2023-05-10T14:03:04;2.50;;;2.08;;
24411;SDS011;12544;46.760;15.942;2023-05-10T14:05:31;2.40;;;2.15;;
24411;SDS011;12544;46.760;15.942;2023-05-10T14:07:57;2.33;;;2.13;;
24411;SDS011;12544;46.760;15.942;2023-05-10T14:10:23;2.85;;;1.95;;
24411;SDS011;12544;46.760;15.942;2023-05-10T14:12:49;3.22;;;2.92;;
24411;SDS011;12544;46.760;15.942;2023-05-10T14:15:15;3.72;;;2.30;;
24411;SDS011;12544;46.760;15.942;2023-05-10T14:17:41;2.20;;;2.10;;
24411;SDS011;12544;46.760;15.942;2023-05-10T14:20:07;2.92;;;1.90;;
24411;SDS011;12544;46.760;15.942;2023-05-10T14:22:33;2.70;;;2.03;;
24411;SDS011;12544;46.760;15.942;2023-05-10T14:24:59;2.53;;;2.30;;
24411;SDS011;12544;46.760;15.942;2023-05-10T14:27:25;1.92;;;1.75;;
24411;SDS011;12544;46.760;15.942;2023-05-10T14:29:51;2.65;;;1.77;;
24411;SDS011;12544;46.760;15.942;2023-05-10T14:32:16;4.85;;;1.60;;
24411;SDS011;12544;46.760;15.942;2023-05-10T14:34:42;2.10;;;1.60;;
24411;SDS011;12544;46.760;15.942;2023-05-10T14:37:09;2.63;;;1.80;;
24411;SDS011;12544;46.760;15.942;2023-05-10T14:39:36;2.08;;;1.90;;
24411;SDS011;12544;46.760;15.942;2023-05-10T14:42:02;2.00;;;1.90;;
24411;SDS011;12544;46.760;15.942;2023-05-10T14:44:28;11.50;;;3.50;;
24411;SDS011;12544;46.760;15.942;2023-05-10T14:46:54;1.88;;;1.77;;
24411;SDS011;12544;46.760;15.942;2023-05-10T14:49:21;3.50;;;1.77;;
24411;SDS011;12544;46.760;15.942;2023-05-10T14:51:49;2.65;;;2.20;;
24411;SDS011;12544;46.760;15.942;2023-05-10T14:54:15;3.88;;;2.10;;
24411;SDS011;12544;46.760;15.942;2023-05-10T14:56:40;1.60;;;1.50;;
24411;SDS011;12544;46.760;15.942;2023-05-10T14:59:07;3.53;;;2.00;;
24411;SDS011;12544;46.760;15.942;2023-05-10T15:01:33;2.05;;;1.60;;
24411;SDS011;12544;46.760;15.942;2023-05-10T15:04:02;2.25;;;1.60;;
24411;SDS011;12544;46.760;15.942;2023-05-10T15:06:31;3.78;;;2.05;;
24411;SDS011;12544;46.760;15.942;2023-05-10T15:08:58;1.95;;;1.85;;
24411;SDS011;12544;46.760;15.942;2023-05-10T15:11:24;3.20;;;1.90;;
24411;SDS011;12544;46.760;15.942;2023-05-10T15:13:50;2.40;;;2.00;;
24411;SDS011;12544;46.760;15.942;2023-05-10T15:16:16;2.80;;;1.98;;
24411;SDS011;12544;46.760;15.942;2023-05-10T15:18:42;2.13;;;2.03;;